CDT,Max TemperatureF,Mean TemperatureF,Min TemperatureF,Max Dew PointF,MeanDew PointF,Min DewpointF,Max Humidity, Mean Humidity, Min Humidity, Max Sea Level PressureIn, Mean Sea Level PressureIn, Min Sea Level PressureIn, Max VisibilityMiles, Mean VisibilityMiles, Min VisibilityMiles, Max Wind SpeedMPH, Mean Wind SpeedMPH, Max Gust SpeedMPH,PrecipitationIn, CloudCover, Events, WindDirDegrees
2013-10-1,84,74,64,66,64,61,94,75,51,30.02,29.97,29.91,10,9,2,9,4,17,0.00,2,,172
2013-10-2,80,73,66,70,65,63,94,78,58,30.05,30.00,29.94,10,9,5,14,5,,0.05,2,,162
2013-10-3,84,75,66,66,64,63,94,78,54,29.96,29.92,29.87,10,10,10,16,6,22,0.00,1,,160
2013-10-4,84,76,69,68,64,61,83,70,51,29.95,29.92,29.87,10,10,10,15,9,21,0.00,1,,175
2013-10-5,73,60,46,68,53,43,94,85,77,30.06,29.99,29.91,10,8,0,13,5,20,1.88,4,Thunderstorm,265
2013-10-6,62,52,42,45,41,37,93,67,45,30.03,29.99,29.96,10,10,10,16,6,21,0.00,1,,267
2013-10-7,69,56,42,50,43,39,93,67,37,30.16,30.11,30.02,10,10,4,10,2,,0.00,0,,11
2013-10-8,69,58,46,48,46,43,93,72,40,30.16,30.12,30.06,10,10,10,13,3,17,0.00,0,,135
2013-10-9,75,60,46,50,46,41,87,61,34,30.14,30.08,30.05,10,10,10,8,4,,0.00,0,,144
2013-10-10,71,60,48,52,48,45,93,78,50,30.11,30.05,29.95,10,10,9,9,3,,0.00,0,,137
2013-10-11,75,68,60,63,61,55,82,72,61,29.96,29.91,29.88,10,10,10,15,10,24,0.00,5,,165
2013-10-12,68,65,62,63,59,52,94,81,68,30.18,30.05,29.91,10,10,5,16,6,22,0.42,5,Thunderstorm,68
2013-10-13,71,65,59,52,49,45,72,58,46,30.33,30.26,30.18,10,10,10,15,8,18,0.00,4,,80
2013-10-14,66,62,59,61,52,43,88,69,55,30.26,30.12,29.98,10,10,7,16,9,22,0.20,3,,129
2013-10-15,64,58,51,63,54,45,94,82,72,30.07,29.98,29.91,10,10,4,13,7,18,0.07,6,,323
2013-10-16,60,52,44,46,41,37,82,67,48,30.13,30.06,30.00,10,10,10,13,5,16,0.00,3,,352
2013-10-17,62,50,39,45,41,36,93,74,42,30.07,30.02,29.98,10,8,0,9,3,,0.00,2,,240
2013-10-18,60,51,42,46,42,37,87,78,55,30.07,30.02,29.97,10,9,3,14,3,17,0.19,3,,20
2013-10-19,57,46,35,39,35,32,87,69,41,30.14,30.07,30.02,10,10,5,12,7,17,0.05,3,,267
2013-10-20,66,52,39,43,38,34,87,59,32,30.03,29.97,29.89,10,10,10,15,6,21,0.00,1,,189
2013-10-21,55,46,37,45,40,34,87,73,54,30.11,30.04,29.96,10,10,10,12,4,,0.01,3,,24
2013-10-22,66,50,35,45,38,30,93,66,42,30.10,30.02,29.95,10,10,1,17,5,25,0.00,1,,261
2013-10-23,62,48,35,41,35,30,87,65,36,30.18,30.10,30.01,10,10,2,8,3,,0.00,0,,15
2013-10-24,53,45,37,39,33,27,93,64,38,30.40,30.26,30.09,10,10,5,15,5,21,0.00,0,,20
2013-10-25,57,46,35,30,27,23,70,52,29,30.48,30.38,30.21,10,10,1,15,5,18,0.00,0,,137
2013-10-26,62,52,42,52,43,30,88,67,57,30.20,30.15,30.10,10,10,10,13,6,18,0.00,4,,237
2013-10-27,64,53,42,46,40,28,87,67,26,30.11,30.06,29.99,10,10,2,7,2,,0.00,0,,347
2013-10-28,66,56,46,52,50,45,94,75,52,30.17,30.11,30.03,10,7,1,10,4,,0.00,5,,162
2013-10-29,69,63,57,63,59,52,88,81,73,30.14,30.05,29.99,10,10,7,16,10,24,0.08,7,,178
2013-10-30,68,65,62,63,61,57,94,87,82,30.05,29.96,29.81,10,8,2,15,6,22,1.95,7,Thunderstorm,169
2013-10-31,71,60,48,63,54,45,94,80,40,29.81,29.66,29.50,10,10,7,25,8,32,0.30,5,,219